Time;durP1;ratioP1;P1;durP2;ratioP2;P2;SDS_P1;SDS_P2;PMS_P1;PMS_P2;Temp;Humidity;BMP_temperature;BMP_pressure;BME280_temperature;BME280_humidity;BME280_pressure;Samples;Min_cycle;Max_cycle;Signal;HPM_P1;HPM_P2
2021/11/09 00:01:01;;;;;;;24.50;18.95;;;256.00;2252.80;;;;;;4825783;29;20034;-86
2021/11/09 00:03:29;;;;;;;29.17;20.40;;;256.00;2252.80;;;;;;4824655;29;20121;-86
2021/11/09 00:06:30;;;;;;;26.30;20.10;;;256.00;2252.80;;;;;;4809300;29;20033;-86
2021/11/09 00:09:34;;;;;;;29.75;21.23;;;256.00;2252.80;;;;;;4823630;29;20045;-86
2021/11/09 00:11:35;;;;;;;27.52;19.75;;;256.00;2252.80;;;;;;4820907;29;20038;-86
2021/11/09 00:14:01;;;;;;;28.02;20.63;;;231.30;2252.80;;;;;;4824496;29;20480;-85
2021/11/09 00:16:29;;;;;;;40.50;22.17;;;231.30;2252.80;;;;;;4824621;29;20041;-85
2021/11/09 00:18:54;;;;;;;30.25;20.65;;;231.30;2252.80;;;;;;4824378;29;20401;-86
2021/11/09 00:21:22;;;;;;;32.38;20.60;;;231.30;2252.80;;;;;;4824363;29;20041;-87
2021/11/09 00:23:48;;;;;;;30.48;19.75;;;231.30;2252.80;;;;;;4824080;29;20058;-87
2021/11/09 00:26:17;;;;;;;30.70;19.30;;;231.30;2252.80;;;;;;4809069;29;20034;-86
2021/11/09 00:28:44;;;;;;;29.92;20.23;;;231.30;2252.80;;;;;;4824389;29;20042;-85
2021/11/09 00:31:10;;;;;;;26.05;18.60;;;231.30;2252.80;;;;;;4824080;29;20038;-85
2021/11/09 00:33:36;;;;;;;35.20;19.85;;;231.30;2252.80;;;;;;4824202;29;20046;-86
2021/11/09 00:36:03;;;;;;;26.52;20.05;;;231.30;2252.80;;;;;;4824142;29;20481;-85
2021/11/09 00:38:31;;;;;;;30.40;19.77;;;231.30;2252.80;;;;;;4824154;29;20040;-85
2021/11/09 00:40:58;;;;;;;33.95;22.50;;;256.00;2252.80;;;;;;4824058;29;20026;-85
2021/11/09 00:43:24;;;;;;;41.33;27.15;;;231.30;2252.80;;;;;;4824330;29;20046;-86
2021/11/09 00:45:50;;;;;;;35.58;25.73;;;231.30;2252.80;;;;;;4823959;29;20027;-86
2021/11/09 00:48:16;;;;;;;37.42;24.98;;;231.20;2252.80;;;;;;4825196;29;20030;-86
2021/11/09 00:50:44;;;;;;;38.85;26.75;;;231.20;2252.80;;;;;;4825194;29;20098;-86
2021/11/09 00:53:14;;;;;;;37.00;25.38;;;231.20;2252.80;;;;;;4824461;29;20465;-86
2021/11/09 00:55:41;;;;;;;33.72;23.40;;;231.20;2252.80;;;;;;4825537;29;20034;-85
2021/11/09 00:58:08;;;;;;;37.65;26.40;;;231.10;2252.80;;;;;;4812520;29;20057;-86
2021/11/09 01:00:35;;;;;;;44.45;25.90;;;231.20;2252.80;;;;;;4827390;29;20030;-86
2021/11/09 01:03:04;;;;;;;41.40;27.25;;;231.20;2252.80;;;;;;4827530;29;20548;-89
2021/11/09 01:05:30;;;;;;;41.95;29.38;;;231.20;2252.80;;;;;;4827351;29;20121;-85
2021/11/09 01:08:00;;;;;;;48.05;29.67;;;231.20;2252.80;;;;;;4828364;29;20046;-86
2021/11/09 01:10:28;;;;;;;49.88;30.75;;;231.20;2252.80;;;;;;4827545;29;20034;-86
2021/11/09 01:12:55;;;;;;;45.42;28.05;;;231.20;2252.80;;;;;;4828365;29;20038;-86
2021/11/09 01:15:21;;;;;;;42.08;27.77;;;231.30;2252.80;;;;;;4827184;29;20039;-86
2021/11/09 01:17:49;;;;;;;40.65;25.70;;;231.30;2252.80;;;;;;4827228;29;20030;-86
2021/11/09 01:20:18;;;;;;;34.67;24.23;;;231.30;2252.80;;;;;;4827126;29;20034;-85
2021/11/09 01:22:46;;;;;;;42.35;27.15;;;231.30;2252.80;;;;;;4828355;29;20030;-86
2021/11/09 01:25:13;;;;;;;38.88;25.85;;;231.30;2252.80;;;;;;4827931;29;20061;-86
2021/11/09 01:27:39;;;;;;;36.03;24.13;;;231.30;2252.80;;;;;;4826814;29;20038;-86
2021/11/09 01:30:07;;;;;;;41.97;26.48;;;231.30;2252.80;;;;;;4826709;29;20105;-86
2021/11/09 01:32:34;;;;;;;37.20;26.08;;;231.30;2252.80;;;;;;4826811;29;20056;-86
2021/11/09 01:35:00;;;;;;;36.45;25.17;;;231.20;2252.80;;;;;;4826885;29;20099;-87
2021/11/09 01:37:26;;;;;;;33.45;25.17;;;231.10;2252.80;;;;;;4826702;29;20038;-87
2021/11/09 01:39:52;;;;;;;35.92;24.85;;;231.10;2252.80;;;;;;4826846;29;20036;-87
2021/11/09 01:42:18;;;;;;;33.58;22.58;;;231.10;2252.80;;;;;;4826553;29;20125;-86
2021/11/09 01:44:44;;;;;;;32.30;23.80;;;231.10;2252.80;;;;;;4826725;29;20041;-86
2021/11/09 01:47:10;;;;;;;31.45;21.85;;;231.10;2252.80;;;;;;4826817;29;20445;-86
2021/11/09 01:49:37;;;;;;;29.77;22.60;;;231.10;2252.80;;;;;;4826676;29;20030;-86
2021/11/09 01:52:04;;;;;;;33.13;22.48;;;231.10;2252.80;;;;;;4826683;29;20030;-85
2021/11/09 01:54:30;;;;;;;49.38;27.55;;;231.10;2252.80;;;;;;4826680;29;20026;-85
2021/11/09 01:56:56;;;;;;;41.72;25.55;;;231.10;2252.80;;;;;;4826568;29;20142;-86
2021/11/09 01:59:22;;;;;;;44.35;26.15;;;231.10;2252.80;;;;;;4827689;29;20531;-87
2021/11/09 02:01:48;;;;;;;44.70;25.80;;;231.00;2252.80;;;;;;4826535;29;20030;-86
2021/11/09 02:04:14;;;;;;;42.58;26.60;;;231.00;2252.80;;;;;;4811207;29;20026;-86
2021/11/09 02:06:40;;;;;;;43.90;25.70;;;231.00;2252.80;;;;;;4826912;29;20037;-86
2021/11/09 02:09:14;;;;;;;39.63;25.70;;;231.00;2252.80;;;;;;4827421;29;20485;-86
2021/11/09 02:11:41;;;;;;;44.35;26.02;;;231.00;2252.80;;;;;;4826059;29;20047;-87
2021/11/09 02:14:08;;;;;;;36.33;23.92;;;231.00;2252.80;;;;;;4826225;29;20042;-86
2021/11/09 02:16:35;;;;;;;38.97;25.42;;;231.00;2252.80;;;;;;4826247;29;20536;-85
2021/11/09 02:19:01;;;;;;;35.42;23.42;;;231.00;2252.80;;;;;;4826231;29;20476;-85
2021/11/09 02:21:27;;;;;;;30.67;23.02;;;231.00;2252.80;;;;;;4826145;29;20026;-85
2021/11/09 02:23:53;;;;;;;30.25;21.48;;;230.90;2252.80;;;;;;4825890;29;20457;-87
2021/11/09 02:26:21;;;;;;;31.63;22.00;;;230.90;2252.80;;;;;;4826630;29;20033;-85
2021/11/09 02:28:49;;;;;;;30.70;21.67;;;230.90;2252.80;;;;;;4825957;29;20034;-86
2021/11/09 02:31:15;;;;;;;30.05;21.98;;;230.90;2252.80;;;;;;4826282;29;20034;-86
2021/11/09 02:33:41;;;;;;;31.55;21.65;;;230.80;2252.80;;;;;;4825832;29;20038;-85
2021/11/09 02:36:07;;;;;;;33.22;23.95;;;230.90;2252.80;;;;;;4826496;29;20624;-87
2021/11/09 02:38:33;;;;;;;34.17;21.23;;;230.80;2252.80;;;;;;4826530;29;20114;-86
2021/11/09 02:41:00;;;;;;;34.47;22.90;;;230.80;2252.80;;;;;;4826994;29;20037;-86
2021/11/09 02:43:27;;;;;;;31.60;22.38;;;230.70;2252.80;;;;;;4825876;29;20031;-86
2021/11/09 02:48:51;;;;;;;32.60;23.80;;;230.60;2252.80;;;;;;4827602;29;20408;-86
2021/11/09 02:51:26;;;;;;;34.65;25.65;;;230.60;2252.80;;;;;;4825802;29;20110;-87
2021/11/09 03:08:04;;;;;;;37.03;24.38;;;230.60;2252.80;;;;;;4827185;29;20526;-86
2021/11/09 03:45:24;;;;;;;25.33;15.73;;;230.50;2252.80;;;;;;4790274;30;20106;-85
2021/11/09 03:47:24;;;;;;;23.40;15.32;;;230.50;2252.80;;;;;;4776955;30;20063;-85
2021/11/09 03:49:51;;;;;;;21.05;14.57;;;230.50;2252.80;;;;;;4773734;30;20063;-85
2021/11/09 03:52:22;;;;;;;23.45;13.77;;;230.40;2252.80;;;;;;4773570;30;20043;-86
2021/11/09 03:54:56;;;;;;;26.08;15.38;;;230.40;2252.80;;;;;;4791690;29;20065;-86
2021/11/09 03:57:28;;;;;;;;;;;230.50;2252.80;;;;;;4791899;29;20053;-85
2021/11/09 04:52:06;;;;;;;20.02;13.48;;;230.50;2252.80;;;;;;4789337;30;20042;-84
2021/11/09 05:11:32;;;;;;;25.42;16.83;;;230.40;2252.80;;;;;;4807326;29;20081;-84
2021/11/09 05:56:51;;;;;;;31.75;20.20;;;205.60;2252.80;;;;;;5080960;24;20513;-82
2021/11/09 06:00:32;;;;;;;28.15;21.77;;;205.70;2252.80;;;;;;4816759;29;20038;-83
2021/11/09 06:09:26;;;;;;;30.70;20.13;;;230.40;2252.80;;;;;;4811964;29;20074;-85
2021/11/09 06:18:18;;;;;;;42.58;22.73;;;230.50;2252.80;;;;;;4811481;29;20054;-88
2021/11/09 06:20:44;;;;;;;34.97;23.25;;;230.50;2252.80;;;;;;4810563;29;20027;-88
2021/11/09 06:23:10;;;;;;;63.25;36.92;;;230.50;2252.80;;;;;;4794647;29;20034;-88
2021/11/09 06:25:36;;;;;;;114.90;81.75;;;230.50;2252.80;;;;;;4790837;24;20063;-93
2021/11/09 06:28:04;;;;;;;258.50;170.10;;;230.50;2252.80;;;;;;4788647;30;20038;-92
2021/11/09 06:30:31;;;;;;;192.70;99.55;;;230.40;2252.80;;;;;;4789917;30;20032;-85
2021/11/09 06:32:57;;;;;;;31.65;21.95;;;230.50;2252.80;;;;;;4790048;30;20031;-89
2021/11/09 06:35:22;;;;;;;37.80;21.73;;;230.40;2252.80;;;;;;4791112;30;20035;-86
2021/11/09 06:37:49;;;;;;;42.72;26.73;;;230.40;2252.80;;;;;;4807193;29;20027;-88
2021/11/09 06:40:15;;;;;;;40.80;27.55;;;230.50;2252.80;;;;;;4791345;29;20069;-87
2021/11/09 06:42:41;;;;;;;38.95;25.48;;;230.50;2252.80;;;;;;4792224;29;20430;-87
2021/11/09 06:45:08;;;;;;;39.65;27.67;;;230.50;2252.80;;;;;;4792399;29;20087;-89
2021/11/09 06:47:33;;;;;;;35.00;24.20;;;230.50;2252.80;;;;;;4816389;29;20066;-88
2021/11/09 06:50:00;;;;;;;37.22;23.30;;;230.40;2252.80;;;;;;4807614;29;20050;-87
2021/11/09 06:52:26;;;;;;;51.13;36.72;;;230.40;2252.80;;;;;;4791476;29;20075;-88
2021/11/09 06:54:51;;;;;;;44.10;29.30;;;230.40;2252.80;;;;;;4791816;29;20039;-87
2021/11/09 06:57:17;;;;;;;38.35;27.40;;;230.40;2252.80;;;;;;4791760;29;20053;-93
2021/11/09 06:59:46;;;;;;;34.75;24.58;;;230.50;2252.80;;;;;;4808015;29;20087;-89
2021/11/09 07:02:12;;;;;;;48.65;31.05;;;230.60;2252.80;;;;;;4791887;29;20057;-88
2021/11/09 07:04:38;;;;;;;39.70;28.48;;;230.60;2252.80;;;;;;4791817;29;20076;-88
2021/11/09 07:07:04;;;;;;;35.25;24.60;;;230.70;2252.80;;;;;;4807097;29;20023;-85
2021/11/09 07:09:30;;;;;;;31.17;22.33;;;230.70;2252.80;;;;;;4807968;29;20054;-93
2021/11/09 07:11:57;;;;;;;27.83;19.98;;;230.80;2252.80;;;;;;4792161;29;20035;-86
2021/11/09 07:14:23;;;;;;;32.95;21.52;;;230.80;2252.80;;;;;;4792208;29;20042;-94
2021/11/09 07:16:51;;;;;;;32.38;23.63;;;230.90;2252.80;;;;;;4807292;29;20056;-86
2021/11/09 07:19:18;;;;;;;26.02;21.15;;;230.90;2252.80;;;;;;4807087;29;20039;-88
2021/11/09 07:21:45;;;;;;;29.58;20.13;;;231.00;2252.80;;;;;;4791915;29;20026;-87
2021/11/09 07:24:12;;;;;;;28.38;20.42;;;231.00;2252.80;;;;;;4791890;29;20515;-86
2021/11/09 07:26:38;;;;;;;31.52;21.90;;;231.10;2252.80;;;;;;4791232;29;20035;-88
2021/11/09 07:29:04;;;;;;;34.65;26.00;;;231.00;2252.80;;;;;;4806036;29;20496;-86
2021/11/09 07:31:32;;;;;;;25.48;18.08;;;231.10;2252.80;;;;;;4807157;29;20037;-85
2021/11/09 07:33:59;;;;;;;27.00;18.60;;;231.00;2252.80;;;;;;4807711;29;20039;-86
2021/11/09 07:36:25;;;;;;;32.28;20.80;;;231.00;2252.80;;;;;;4791727;29;20026;-86
2021/11/09 07:38:52;;;;;;;29.00;18.88;;;231.00;2252.80;;;;;;4807957;29;20066;-88
2021/11/09 07:41:19;;;;;;;32.70;20.20;;;231.00;2252.80;;;;;;4806609;29;20034;-85
2021/11/09 07:43:45;;;;;;;37.47;20.38;;;231.00;2252.80;;;;;;4791171;29;20038;-86
2021/11/09 07:46:11;;;;;;;34.83;19.42;;;231.10;2252.80;;;;;;4790664;29;20100;-86
2021/11/09 07:48:37;;;;;;;27.17;16.27;;;231.10;2252.80;;;;;;4791350;29;20066;-87
2021/11/09 07:51:04;;;;;;;26.35;14.98;;;231.00;2252.80;;;;;;4791556;29;20460;-88
2021/11/09 07:53:34;;;;;;;26.40;16.92;;;231.00;2252.80;;;;;;4807656;29;20043;-88
2021/11/09 08:01:16;;;;;;;24.67;13.60;;;231.00;2252.80;;;;;;4807279;29;20113;-87
2021/11/09 08:06:24;;;;;;;27.38;16.52;;;231.00;2252.80;;;;;;4807324;29;20047;-90
2021/11/09 08:11:42;;;;;;;23.92;14.23;;;231.10;2252.80;;;;;;4795347;29;20035;-94
2021/11/09 08:14:09;;;;;;;18.42;12.80;;;231.10;2252.80;;;;;;4796721;29;20043;-88
2021/11/09 08:16:35;;;;;;;19.38;12.45;;;231.20;2252.80;;;;;;4812179;29;20030;-90
2021/11/09 08:19:06;;;;;;;20.25;13.57;;;231.30;2252.80;;;;;;4815718;29;20037;-94
2021/11/09 08:21:33;;;;;;;22.48;12.95;;;231.30;2252.80;;;;;;4793785;29;20027;-93
2021/11/09 08:24:00;;;;;;;25.58;17.05;;;256.00;2252.80;;;;;;4790905;29;20070;-85
2021/11/09 08:26:26;;;;;;;24.30;14.45;;;256.10;2252.80;;;;;;4807117;29;20027;-86
2021/11/09 08:28:54;;;;;;;23.40;14.32;;;256.30;2252.80;;;;;;4804393;29;20076;-86
2021/11/09 08:31:23;;;;;;;22.40;14.95;;;256.30;2252.80;;;;;;4804792;29;20404;-86
2021/11/09 08:33:49;;;;;;;22.60;14.60;;;256.40;2252.80;;;;;;4815631;29;20035;-86
2021/11/09 08:36:22;;;;;;;21.95;13.95;;;256.50;2252.80;;;;;;4806687;29;20038;-88
2021/11/09 08:38:48;;;;;;;21.63;13.57;;;256.10;2252.80;;;;;;4806637;29;20135;-88
2021/11/09 08:41:16;;;;;;;18.50;12.13;;;256.20;2252.80;;;;;;4807370;29;20062;-88
2021/11/09 08:43:55;;;;;;;22.73;11.73;;;256.20;2252.80;;;;;;4806554;29;20035;-87
2021/11/09 08:46:22;;;;;;;23.15;13.65;;;256.30;2252.80;;;;;;4806096;29;20370;-88
2021/11/09 08:48:53;;;;;;;24.92;11.52;;;256.30;2252.80;;;;;;4790719;29;20035;-88
2021/11/09 08:51:21;;;;;;;17.50;10.18;;;256.40;2252.80;;;;;;4805567;29;20039;-90
2021/11/09 08:53:55;;;;;;;21.70;11.68;;;256.60;2252.80;;;;;;4790140;29;20057;-89
2021/11/09 08:56:30;;;;;;;20.55;12.23;;;256.50;2252.80;;;;;;4790576;29;20027;-88
2021/11/09 09:04:15;;;;;;;20.27;11.63;;;307.30;2304.00;;;;;;4806599;29;20127;-88
2021/11/09 09:06:44;;;;;;;18.35;12.80;;;307.70;2227.20;;;;;;4805625;29;20485;-88
2021/11/09 09:09:10;;;;;;;19.30;10.63;;;358.90;2048.00;;;;;;4790508;29;20114;-85
2021/11/09 09:11:36;;;;;;;19.83;10.25;;;435.40;1638.40;;;;;;4805325;29;20370;-85
2021/11/09 09:14:04;;;;;;;15.93;9.70;;;410.30;1664.00;;;;;;4790310;29;20126;-87
2021/11/09 09:16:31;;;;;;;17.10;7.85;;;;;;;;;;4806649;29;20027;-88
2021/11/09 09:19:00;;;;;;;17.15;10.13;;;460.90;1536.00;;;;;;4821669;29;20044;-85
2021/11/09 09:21:48;;;;;;;19.45;11.13;;;487.20;1356.80;;;;;;4808381;29;20649;-84
2021/11/09 09:24:26;;;;;;;17.58;10.50;;;;;;;;;;4793254;29;20059;-83
2021/11/09 09:54:50;;;;;;;20.88;12.32;;;666.30;844.80;;;;;;4736632;30;20434;-86
2021/11/09 09:57:17;;;;;;;35.05;23.02;;;615.20;947.20;;;;;;4730995;30;20025;-86
2021/11/09 09:59:45;;;;;;;23.50;16.70;;;588.90;1049.60;;;;;;4742317;30;20071;-90
2021/11/09 10:02:22;;;;;;;30.15;14.40;;;589.10;1075.20;;;;;;4739465;30;20042;-88
2021/11/09 10:04:54;;;;;;;17.45;10.77;;;563.90;1075.20;;;;;;4744705;30;20064;-86
2021/11/09 10:07:26;;;;;;;18.23;13.38;;;;;;;;;;4754030;30;20127;-86
2021/11/09 10:09:52;;;;;;;24.92;15.35;;;461.00;1331.20;;;;;;4754996;30;20032;-94
2021/11/09 10:12:28;;;;;;;18.00;12.18;;;460.90;1382.40;;;;;;4755553;30;20035;-95
2021/11/09 10:14:56;;;;;;;17.98;11.07;;;435.60;1433.60;;;;;;4756223;30;20579;-94
2021/11/09 10:17:27;;;;;;;15.43;9.95;;;435.40;1484.80;;;;;;4758242;30;20094;-96
2021/11/09 10:19:58;;;;;;;20.77;10.63;;;460.90;1459.20;;;;;;4756080;30;20046;-95
2021/11/09 10:22:32;;;;;;;14.32;9.45;;;487.20;1305.60;;;;;;4757487;30;20048;-96
2021/11/09 10:25:09;;;;;;;;;;;512.40;1203.20;;;;;;4743614;30;20052;-96
2021/11/09 10:27:37;;;;;;;20.38;9.85;;;486.50;1459.20;;;;;;4781989;29;19908;-96
2021/11/09 10:30:17;;;;;;;16.73;10.77;;;461.40;1408.00;;;;;;4810430;29;20034;-94
2021/11/09 10:32:45;;;;;;;21.75;11.25;;;487.20;1305.60;;;;;;4794872;29;20396;-96
2021/11/09 10:35:14;;;;;;;10.63;7.70;;;486.40;1331.20;;;;;;4816509;29;20435;-95
2021/11/09 10:37:49;;;;;;;13.68;8.77;;;486.60;1305.60;;;;;;4816569;29;20422;-96
2021/11/09 10:40:22;;;;;;;16.27;10.27;;;512.10;1254.40;;;;;;4800325;30;20031;-96
2021/11/09 10:42:54;;;;;;;24.63;10.07;;;486.50;1331.20;;;;;;4808658;29;20031;-94
2021/11/09 10:45:23;;;;;;;14.65;8.63;;;461.60;1382.40;;;;;;4809061;29;20033;-94
2021/11/09 10:47:55;;;;;;;23.02;12.57;;;538.20;1203.20;;;;;;4811293;29;20031;-95
2021/11/09 10:50:26;;;;;;;17.35;11.85;;;614.40;998.40;;;;;;4796050;29;20438;-96
2021/11/09 10:53:16;;;;;;;14.43;10.15;;;563.40;1203.20;;;;;;4809781;29;20042;-93
2021/11/09 10:56:15;;;;;;;15.85;8.90;;;538.30;1126.40;;;;;;4793316;29;20035;-92
2021/11/09 11:04:37;;;;;;;12.93;8.55;;;384.20;1715.20;;;;;;4736037;30;20044;-92
2021/11/09 11:07:11;;;;;;;16.88;9.10;;;359.20;1817.60;;;;;;4737546;30;20598;-95
2021/11/09 11:10:03;;;;;;;15.32;9.02;;;;;;;;;;4736208;30;20408;-93
2021/11/09 11:12:28;;;;;;;16.70;9.50;;;358.80;1868.80;;;;;;4735811;30;20037;-92
2021/11/09 11:14:56;;;;;;;18.77;8.50;;;;;;;;;;4736574;30;20423;-93
2021/11/09 11:17:22;;;;;;;13.60;8.32;;;;;;;;;;4736186;30;20044;-94
2021/11/09 11:19:53;;;;;;;12.55;8.25;;;358.40;1945.60;;;;;;4738330;30;20096;-95
2021/11/09 11:22:22;;;;;;;12.13;8.55;;;333.70;1971.20;;;;;;4737637;30;20037;-95
2021/11/09 11:24:49;;;;;;;12.30;7.78;;;333.60;1945.60;;;;;;4739309;30;20080;-94
2021/11/09 11:27:32;;;;;;;78.60;22.70;;;333.40;1920.00;;;;;;4747469;30;20047;-95
2021/11/09 11:29:59;;;;;;;20.85;12.20;;;333.10;1996.80;;;;;;4745951;30;20049;-94
2021/11/09 11:32:26;;;;;;;10.60;7.55;;;333.10;2099.20;;;;;;4742019;30;20579;-94
2021/11/09 11:35:07;;;;;;;17.05;9.15;;;332.80;2022.40;;;;;;4755363;29;20517;-93
2021/11/09 11:37:34;;;;;;;13.07;8.70;;;;;;;;;;4811801;29;20049;-95
2021/11/09 11:40:05;;;;;;;15.25;8.93;;;;;;;;;;4816442;29;20043;-94
2021/11/09 11:42:37;;;;;;;15.95;9.80;;;;;;;;;;4814992;29;20049;-95
2021/11/09 11:45:04;;;;;;;11.70;7.43;;;333.70;2048.00;;;;;;4812196;29;20064;-94
2021/11/09 11:47:30;;;;;;;17.63;7.75;;;358.40;1920.00;;;;;;4817122;29;20037;-96
2021/11/09 11:50:00;;;;;;;18.58;9.82;;;;;;;;;;4811244;29;20030;-96
2021/11/09 11:52:32;;;;;;;13.80;7.70;;;384.00;1868.80;;;;;;4819283;29;20053;-95
2021/11/09 11:55:07;;;;;;;11.48;7.60;;;384.00;1868.80;;;;;;4808917;29;20471;-95
2021/11/09 11:57:50;;;;;;;10.63;7.13;;;384.10;1843.20;;;;;;4793743;29;20027;-94
2021/11/09 12:00:32;;;;;;;11.83;6.87;;;436.10;1536.00;;;;;;4808046;29;20411;-95
2021/11/09 12:03:01;;;;;;;13.77;8.60;;;512.60;1280.00;;;;;;4808201;29;20030;-95
2021/11/09 12:05:38;;;;;;;20.23;12.90;;;;;;;;;;4807891;29;20077;-95
2021/11/09 12:08:09;;;;;;;14.10;8.35;;;486.70;1408.00;;;;;;4807768;29;20027;-96
2021/11/09 12:10:43;;;;;;;9.88;6.60;;;486.70;1510.40;;;;;;4806832;29;20038;-94
2021/11/09 12:13:10;;;;;;;9.77;6.30;;;486.90;1356.80;;;;;;4791812;29;20400;-94
2021/11/09 12:15:45;;;;;;;13.48;7.15;;;486.70;1433.60;;;;;;4808589;29;20034;-95
2021/11/09 12:18:31;;;;;;;11.82;7.32;;;487.10;1331.20;;;;;;4827207;29;20042;-93
2021/11/09 12:21:20;;;;;;;14.70;6.90;;;512.50;1331.20;;;;;;4789715;29;20058;-88
2021/11/09 12:24:05;;;;;;;9.60;6.43;;;;;;;;;;4815670;29;20031;-93
2021/11/09 12:26:58;;;;;;;7.55;5.32;;;;;;;;;;4810591;29;20039;-96
2021/11/09 12:29:36;;;;;;;10.80;5.50;;;589.20;1049.60;;;;;;4825481;29;20015;-96
2021/11/09 12:32:28;;;;;;;9.07;5.15;;;640.60;921.60;;;;;;4803404;29;20023;-95
2021/11/09 12:35:01;;;;;;;9.70;5.78;;;691.80;844.80;;;;;;4799315;29;20098;-95
2021/11/09 12:37:27;;;;;;;9.30;6.57;;;665.70;921.60;;;;;;4810308;29;20478;-96
2021/11/09 12:40:23;;;;;;;15.13;8.20;;;665.90;947.20;;;;;;4790640;29;20552;-92
2021/11/09 12:43:26;;;;;;;16.20;8.85;;;640.20;972.80;;;;;;4809792;29;20080;-88
2021/11/09 12:46:14;;;;;;;11.13;7.33;;;589.70;1024.00;;;;;;4816990;29;20038;-91
2021/11/09 12:49:13;;;;;;;12.40;7.82;;;537.60;1203.20;;;;;;4815768;24;20288;-96
2021/11/09 12:51:55;;;;;;;14.77;8.55;;;461.50;1408.00;;;;;;4807238;29;20088;-96
2021/11/09 12:54:26;;;;;;;15.18;9.68;;;435.80;1484.80;;;;;;4803898;29;20047;-94
2021/11/09 12:57:08;;;;;;;27.05;23.15;;;410.50;1587.20;;;;;;4793523;29;20020;-94
2021/11/09 12:59:43;;;;;;;49.50;42.50;;;;;;;;;;4784378;30;20118;-96
2021/11/09 13:02:39;;;;;;;33.80;24.17;;;410.00;1587.20;;;;;;4796632;30;20076;-96
2021/11/09 13:05:28;;;;;;;18.00;11.38;;;409.60;1689.60;;;;;;4764347;30;20047;-95
2021/11/09 13:08:14;;;;;;;23.65;15.77;;;384.90;1664.00;;;;;;4781323;29;20073;-96
2021/11/09 13:10:40;;;;;;;178.70;74.27;;;384.80;1612.80;;;;;;4763425;30;20071;-95
2021/11/09 13:13:06;;;;;;;431.77;167.20;;;384.60;1664.00;;;;;;4756597;30;20299;-95
2021/11/09 13:15:32;;;;;;;238.80;102.15;;;384.20;1715.20;;;;;;4756544;30;20044;-91
2021/11/09 13:18:07;;;;;;;426.88;207.38;;;384.20;1715.20;;;;;;4757396;30;20471;-92
2021/11/09 13:20:36;;;;;;;164.95;82.70;;;384.00;1715.20;;;;;;4755936;30;20048;-95
2021/11/09 13:23:23;;;;;;;60.60;29.67;;;409.80;1664.00;;;;;;4770691;30;20536;-94
2021/11/09 13:25:55;;;;;;;22.40;13.40;;;537.80;1254.40;;;;;;4754992;30;20040;-91
2021/11/09 13:28:36;;;;;;;18.52;13.02;;;486.80;1331.20;;;;;;4754778;30;20024;-93
2021/11/09 13:31:10;;;;;;;18.83;12.90;;;436.10;1433.60;;;;;;4754675;30;20635;-90
2021/11/09 13:33:39;;;;;;;19.90;13.60;;;487.30;1280.00;;;;;;4754704;30;21080;-94
2021/11/09 13:36:07;;;;;;;37.10;22.58;;;615.30;1049.60;;;;;;4760624;30;20039;-95
2021/11/09 13:38:39;;;;;;;29.13;17.92;;;691.60;844.80;;;;;;4754701;30;20036;-93
2021/11/09 13:41:18;;;;;;;25.15;16.75;;;717.60;793.60;;;;;;4770626;30;20023;-94
2021/11/09 13:43:51;;;;;;;18.52;12.38;;;717.50;793.60;;;;;;4772685;30;20437;-92
2021/11/09 13:46:19;;;;;;;;;;;589.00;1024.00;;;;;;4772976;30;20080;-92
2021/11/09 13:48:51;;;;;;;23.63;15.10;;;640.20;921.60;;;;;;4772269;30;20367;-94
2021/11/09 13:51:24;;;;;;;28.58;19.83;;;691.80;844.80;;;;;;4772738;30;20084;-94
2021/11/09 13:53:54;;;;;;;;;;;717.30;793.60;;;;;;4788009;30;20043;-92
2021/11/09 13:56:23;;;;;;;26.48;19.70;;;717.60;793.60;;;;;;4789751;29;19971;-92
2021/11/09 13:59:02;;;;;;;22.90;14.77;;;742.60;819.20;;;;;;4772499;30;20042;-94
2021/11/09 14:01:33;;;;;;;30.08;23.73;;;717.30;768.00;;;;;;4772767;29;20060;-89
2021/11/09 14:04:25;;;;;;;27.65;18.83;;;691.60;793.60;;;;;;4795478;29;20027;-91
2021/11/09 14:17:49;;;;;;;19.35;12.20;;;410.00;1484.80;;;;;;4791606;30;20037;-94
2021/11/09 14:20:22;;;;;;;19.17;10.90;;;384.70;1561.60;;;;;;4775232;30;20028;-92
2021/11/09 14:23:03;;;;;;;20.02;12.75;;;384.20;1612.80;;;;;;4773159;30;20031;-95
2021/11/09 14:25:30;;;;;;;60.33;34.60;;;359.20;1664.00;;;;;;4773684;30;20552;-92
2021/11/09 14:27:56;;;;;;;57.85;37.33;;;;;;;;;;4774753;30;20019;-92
2021/11/09 14:30:24;;;;;;;68.10;37.28;;;;;;;;;;4797138;29;20398;-91
2021/11/09 14:32:51;;;;;;;52.05;30.15;;;358.70;1817.60;;;;;;4797332;29;20039;-92
2021/11/09 14:37:56;;;;;;;112.35;64.65;;;;;;;;;;4789259;30;20023;-93
2021/11/09 14:40:33;;;;;;;147.60;83.57;;;;;;;;;;4797323;29;20165;-91
2021/11/09 14:43:22;;;;;;;141.02;81.20;;;333.40;1945.60;;;;;;4799213;29;20516;-91
2021/11/09 14:48:19;;;;;;;129.00;61.35;;;;;;;;;;4790888;30;20051;-93
2021/11/09 14:53:25;;;;;;;141.00;78.68;;;;;;;;;;4791229;30;20114;-92
2021/11/09 14:55:59;;;;;;;170.00;96.57;;;;;;;;;;4791338;29;20034;-93
2021/11/09 14:58:35;;;;;;;177.48;98.07;;;332.80;2048.00;;;;;;4796951;29;20028;-95
2021/11/09 15:01:21;;;;;;;100.15;57.60;;;308.10;2304.00;;;;;;4770057;29;20039;-94
2021/11/09 15:03:55;;;;;;;113.18;64.95;;;;;;;;;;4805135;29;20019;-93
2021/11/09 15:09:30;;;;;;;171.35;90.47;;;;;;;;;;4808428;29;20318;-94
2021/11/09 15:28:21;;;;;;;310.75;175.07;;;;;;;;;;4809041;29;20465;-94
2021/11/09 15:30:55;;;;;;;294.42;177.77;;;;;;;;;;4807454;29;20477;-94
2021/11/09 15:33:28;;;;;;;273.58;156.18;;;;;;;;;;4807584;29;20043;-93
2021/11/09 15:38:40;;;;;;;258.35;151.95;;;282.10;2252.80;;;;;;4808591;29;20053;-95
2021/11/09 15:41:07;;;;;;;258.13;156.80;;;281.90;2278.40;;;;;;4792098;29;20073;-95
2021/11/09 15:43:33;;;;;;;292.33;172.00;;;281.80;2278.40;;;;;;4792148;29;20092;-92
2021/11/09 15:46:02;;;;;;;334.83;206.20;;;281.80;2278.40;;;;;;4792111;29;20261;-95
2021/11/09 15:48:29;;;;;;;308.73;179.98;;;281.70;2278.40;;;;;;4791354;29;20520;-94
2021/11/09 15:50:55;;;;;;;324.75;200.20;;;281.70;2278.40;;;;;;4791946;29;20043;-92
2021/11/09 15:53:21;;;;;;;273.50;162.70;;;281.60;2278.40;;;;;;4795811;29;20045;-92
2021/11/09 15:55:47;;;;;;;259.13;153.18;;;256.90;2252.80;;;;;;4791936;29;20122;-93
2021/11/09 15:58:14;;;;;;;242.05;145.55;;;256.80;2252.80;;;;;;4794357;29;20387;-95
2021/11/09 16:00:44;;;;;;;266.40;166.75;;;256.80;2252.80;;;;;;4809380;29;20042;-95
2021/11/09 16:03:10;;;;;;;212.18;128.65;;;256.70;2252.80;;;;;;4791784;29;20035;-93
2021/11/09 16:05:37;;;;;;;212.32;128.95;;;256.70;2252.80;;;;;;4791604;29;20041;-94
2021/11/09 16:08:03;;;;;;;280.63;169.23;;;256.60;2252.80;;;;;;4790516;29;20027;-94
2021/11/09 16:10:33;;;;;;;275.52;166.18;;;256.60;2252.80;;;;;;4791964;29;20133;-92
2021/11/09 16:13:01;;;;;;;261.65;161.43;;;256.50;2252.80;;;;;;4791756;29;20528;-95
2021/11/09 16:15:27;;;;;;;304.40;194.32;;;256.40;2252.80;;;;;;4791110;29;20030;-94
2021/11/09 16:17:53;;;;;;;282.17;172.68;;;256.30;2252.80;;;;;;4791264;29;20050;-93
2021/11/09 16:20:19;;;;;;;370.67;222.65;;;256.30;2252.80;;;;;;4791398;29;20460;-94
2021/11/09 16:22:46;;;;;;;336.40;197.50;;;256.00;2252.80;;;;;;4791449;29;20091;-94
2021/11/09 16:25:13;;;;;;;227.40;131.20;;;;;;;;;;4790600;29;20031;-94
2021/11/09 16:27:40;;;;;;;235.35;133.35;;;231.30;2252.80;;;;;;4804777;29;20035;-94
2021/11/09 16:30:20;;;;;;;190.05;114.47;;;231.30;2252.80;;;;;;4789967;29;20038;-94
2021/11/09 16:32:53;;;;;;;187.02;110.97;;;231.30;2252.80;;;;;;4788298;29;20125;-93
2021/11/09 16:35:49;;;;;;;209.17;121.47;;;231.30;2252.80;;;;;;4790794;29;20545;-93
2021/11/09 16:38:14;;;;;;;212.50;125.47;;;231.30;2252.80;;;;;;4800694;29;20290;-95
2021/11/09 16:40:42;;;;;;;207.13;129.45;;;231.20;2252.80;;;;;;4791459;29;20046;-94
2021/11/09 16:43:11;;;;;;;192.57;121.95;;;231.20;2252.80;;;;;;4789863;29;20037;-94
2021/11/09 16:45:51;;;;;;;150.52;93.82;;;231.20;2252.80;;;;;;4789664;29;20118;-93
2021/11/09 16:48:18;;;;;;;148.93;88.25;;;231.20;2252.80;;;;;;4789653;29;20062;-94
2021/11/09 16:53:29;;;;;;;147.18;93.95;;;231.20;2252.80;;;;;;4806601;29;20050;-94
2021/11/09 16:56:38;;;;;;;140.63;87.05;;;231.10;2252.80;;;;;;4790166;29;20495;-94
2021/11/09 17:14:02;;;;;;;112.13;73.63;;;231.00;2252.80;;;;;;4807271;29;20026;-95